Sprint Open Béziers (34) - C2

Date : 30/10/2021
Distance : 2,400 km

Place Nom Licence Catégorie Club Temps min/km CN à J-60 Points Différence Nouveau CN
1 CHATELON Lucile 1557 D40 4203AR 0:13:24 5'35 6298 5294 -1004 6369
2 RIOLLET Marion 21281 D20 6911AR 0:14:34 6'04 4537 4870 +333 4833
3 TIRBOIS Madeleine 15917 D40 7719IF 0:14:43 6'07 5156 4820 -336 5236
4 PAULY Marianne 21040 D40 1705NA 0:15:07 6'17 5313 4693 -620 5311
5 MAIRE Chloe 28341 D20 5703GE 0:15:07 6'17 5317 4693 -624 5317
6 SANCHEZ Marlene 15247 D40 6208HF 0:16:03 6'41 4802 4420 -382 4840
7 KONIECZNY Vanessa 16044 D40 7309AR 0:16:15 6'46 4547 4365 -182 4490
8 TAURISSON Claire 37723 D40 7404AR 0:16:28 6'51 3735 4308 +573 3935
9 CHAMP Florine 31672 D20 3319NA 0:16:32 6'53 4024 4290 +266 3931
10 FORESTIER Charlotte 33438 D40 2517BF 0:16:45 6'58 4512 4235 -277 4660
11 MANCINA Céline 31241 D40 0705AR 0:17:18 7'12 3639 4100 +461 0
12 TALON Anaëlle 32100 D20 8607NA 0:17:39 7'21 4303 4019 -284 4303
13 FAUVET Chrystelle 13430 D40 6008HF 0:17:46 7'24 4378 3993 -385 4119
14 PIVOT Claire 36724 D40 3812AR 0:17:50 7'25 4171 3978 -193 4323
15 DECARPIGNY Gwladys 6995 D40 5907HF 0:18:17 7'37 4028 3880 -148 4009
16 BERTOUT Olivia 36156 D40 5906HF 0:18:29 7'42 1037 3838 +2801 2926
17 CHAPILLON Aurelie 22674 D45 0615PZ 0:18:49 7'50 4058 3770 -288 3896
18 LEMIEGRE Virginie 39839 D40 1408NM 0:19:08 7'58 2465 3707 +1242 3626
19 MACHEBOEUF ALINE 30588 D40 6307AR 0:19:13 8'00 3961 3691 -270 3970
20 POINSOTTE Fanny 25125 D40 3810AR 0:19:42 8'12 3678 3601 -77 3699
21 JULES Aurore 32522 D20 6604OC 0:19:42 8'12 2810 3601 +791 3265
22 NIGGLI Daria 21017 D40 3913BF 0:19:49 8'15 4357 3580 -777 4311
23 ARNOUX Anne 37083 D40 8807GE 0:20:03 8'21 2084 3538 +1454 2513
24 PECHSTEIN Alice 9619 D40 5402GE 0:20:06 8'22 3609 3529 -80 3618
25 LESIGNE Agathe 35073 D40 1303PZ 0:20:15 8'26 3683 3503 -180 3812
26 LAROSE Marlene 25048 D40 3810AR 0:20:15 8'26 3652 3503 -149 3756
27 GARCIA Marie Line 16791 D40 0705AR 0:20:33 8'33 4498 3452 -1046 4714
28 CHEVALIER Caroline 24293 D40 8702NA 0:20:35 8'34 4081 3446 -635 4055
29 VILLEDIEU Florence 20797 D40 1403NM 0:20:39 8'36 3692 3435 -257 3719
30 NOBLE Sandrine 17634 D40 1905NA 0:20:40 8'36 4025 3432 -593 3898
31 FRANCOIS Marie 40109 D40 1408NM 0:20:43 8'37 3424 2181
32 BERTHOLOM Morgane 32505 D40 2904BR 0:21:27 8'56 3397 3307 -90 3509
33 MASSIAS Sophie 26035 D40 1905NA 0:21:29 8'57 3951 3302 -649 3781
34 HERVE Manon 30599 D20 3318NA 0:21:40 9'01 3538 3274 -264 3731
35 LE GUEN Marlène 39312 D40 2904BR 0:22:10 9'14 3200 1978
36 DECHAVANNE Nathalie 13284 D40 6911AR 0:22:28 9'21 2808 3157 +349 2568
37 EININGER Céline 26071 D40 0615PZ 0:22:36 9'25 2845 3139 +294 2853
38 NAUDINOT Nolwen 41072 D40 5803BF 0:22:52 9'31 3102 1802
39 LE BIAVANT Laétitia 35626 D40 4705NA 0:23:08 9'38 2778 3066 +288 2899
40 COURTOIS Mélanie 36932 D40 3319NA 0:23:14 9'40 2827 3053 +226 2884
41 DEVILLE Stéphanie 27644 D40 3810AR 0:24:15 10'06 4315 2925 -1390 4262
42 LETERME Elise 40284 D40 7311AR 0:24:29 10'12 1256 2897 +1641 1493
43 ECHILLEY Anne-Laure 30919 D40 7004BF 0:25:07 10'27 2969 2824 -145 3020
44 SAVOIRE Raphaëlle 30455 D40 3308NA 0:25:15 10'31 3113 2809 -304 3120
45 DUBROCA Christele 632 D40 3308NA 0:26:18 10'57 4279 2697 -1582 4279
46 HAGARD Virginie 7048 D40 5907HF 0:26:20 10'58 2152 2694 +542 2439
47 SOLBES Corine 30173 D40 1705NA 0:27:07 11'17 3792 2616 -1176 3715
48 DOMBROVSKY Florence 25178 D40 3308NA 0:27:40 11'31 3207 2564 -643 3153
49 CYFFERS Morgane 39145 D40 5906HF 0:27:52 11'36 0 2546 813
50 ASTOUL Sandrine 16801 D40 6911AR 0:28:08 11'43 2859 2521 -338 2573
51 BARRERE Nathalie 28365 D40 8105OC 0:32:15 13'26 3008 2200 -808 3075
52 SCHOULLER Coralie 13242 D40 5703GE 0:32:36 13'35 3596 2176 -1420 3537
53 DIOT Sandrine 40661 D40 8607NA 0:33:56 14'08 2090 747
54 DEWILDE Lydie 40654 D40 5907HF 0:36:42 15'17 1933 972
55 LAGENEBRE Jenny 40830 D40 4012NA 0:38:49 16'10 2742 1827 -915 3085
MADRANGES Héléne 30598 D40 3318NA pm None 3706 0 3662
TOURE-FORT Myriam 40833 D40 1209OC pm None 0 0 0